NCR9502 KMIA-KMCO
Flight info
| Callsign | NCR9502 |
|---|---|
| Flight time | 0h 39m |
| Altitude | 22000 |
| Route | FLMGO2 WAPOM MUNGI1 |
| Aircraft | B77L/H-SDE1E2E3FGHIJ2J3J4J5M1RWXY/LB1D1 |
Departure
| Time | 2026-04-23 19:20 |
|---|---|
| Airport | Miami International Airport (KMIA) |
Arrival
| Time | 2026-04-23 20:00 |
|---|---|
| Airport | Orlando International Airport (KMCO) |
| Time | Latitude | Longitude | Altitude | Speed | Heading |
|---|---|---|---|---|---|
| 2026-04-23 18:56 | 25.79121 | -80.29167 | 19 ft | 0 kts | 209° |
| 2026-04-23 19:11 | 25.79123 | -80.29166 | 19 ft | 2 kts | 209° |
| 2026-04-23 19:11 | 25.79145 | -80.29152 | 20 ft | 4 kts | 209° |
| 2026-04-23 19:11 | 25.79164 | -80.29141 | 22 ft | 4 kts | 228° |
| 2026-04-23 19:12 | 25.79170 | -80.29129 | 19 ft | 4 kts | 284° |
| 2026-04-23 19:12 | 25.79155 | -80.29096 | 20 ft | 4 kts | 299° |
| 2026-04-23 19:12 | 25.79151 | -80.29088 | 19 ft | 0 kts | 299° |
| 2026-04-23 19:16 | 25.79154 | -80.29093 | 19 ft | 4 kts | 300° |
| 2026-04-23 19:16 | 25.79178 | -80.29138 | 21 ft | 8 kts | 301° |
| 2026-04-23 19:17 | 25.79256 | -80.29273 | 20 ft | 13 kts | 302° |
| 2026-04-23 19:17 | 25.79307 | -80.29364 | 20 ft | 15 kts | 301° |
| 2026-04-23 19:17 | 25.79377 | -80.29455 | 20 ft | 16 kts | 337° |
| 2026-04-23 19:17 | 25.79491 | -80.29463 | 23 ft | 17 kts | 359° |
| 2026-04-23 19:18 | 25.79611 | -80.29464 | 19 ft | 13 kts | 356° |
| 2026-04-23 19:18 | 25.79688 | -80.29519 | 19 ft | 14 kts | 304° |
| 2026-04-23 19:18 | 25.79743 | -80.29622 | 20 ft | 17 kts | 299° |
| 2026-04-23 19:18 | 25.79804 | -80.29744 | 19 ft | 19 kts | 299° |
| 2026-04-23 19:19 | 25.79943 | -80.30016 | 18 ft | 20 kts | 300° |
| 2026-04-23 19:19 | 25.80010 | -80.30116 | 20 ft | 13 kts | 333° |
| 2026-04-23 19:20 | 25.80079 | -80.29926 | 17 ft | 39 kts | 88° |
| 2026-04-23 19:20 | 25.80091 | -80.29488 | 19 ft | 73 kts | 88° |
| 2026-04-23 19:20 | 25.80126 | -80.28613 | 68 ft | 153 kts | 88° |
| 2026-04-23 19:20 | 25.80180 | -80.27393 | 952 ft | 159 kts | 88° |
| 2026-04-23 19:21 | 25.80226 | -80.26172 | 2154 ft | 161 kts | 88° |
| 2026-04-23 19:21 | 25.80403 | -80.23363 | 3933 ft | 219 kts | 88° |
| 2026-04-23 19:21 | 25.80485 | -80.21543 | 4692 ft | 252 kts | 89° |
| 2026-04-23 19:22 | 25.80553 | -80.19530 | 5017 ft | 268 kts | 85° |
| 2026-04-23 19:22 | 25.81025 | -80.17508 | 4835 ft | 272 kts | 64° |
| 2026-04-23 19:22 | 25.83848 | -80.14977 | 4852 ft | 272 kts | 17° |
| 2026-04-23 19:23 | 25.85716 | -80.14897 | 5615 ft | 271 kts | 351° |
| 2026-04-23 19:23 | 25.87525 | -80.15266 | 7261 ft | 263 kts | 351° |
| 2026-04-23 19:23 | 25.89335 | -80.15474 | 8725 ft | 258 kts | 352° |
| 2026-04-23 19:24 | 25.92641 | -80.17252 | 10788 ft | 279 kts | 328° |
| 2026-04-23 19:24 | 25.94519 | -80.18018 | 11719 ft | 297 kts | 346° |
| 2026-04-23 19:24 | 25.98677 | -80.19020 | 13855 ft | 316 kts | 340° |
| 2026-04-23 19:25 | 26.02436 | -80.21810 | 14858 ft | 354 kts | 312° |
| 2026-04-23 19:25 | 26.05898 | -80.25840 | 17163 ft | 360 kts | 311° |
| 2026-04-23 19:26 | 26.09378 | -80.29639 | 19923 ft | 353 kts | 316° |
| 2026-04-23 19:26 | 26.11242 | -80.31447 | 20933 ft | 359 kts | 316° |
| 2026-04-23 19:27 | 26.15082 | -80.35168 | 22129 ft | 368 kts | 316° |
| 2026-04-23 19:27 | 26.21124 | -80.41162 | 22124 ft | 402 kts | 316° |
| 2026-04-23 19:28 | 26.25756 | -80.44646 | 22113 ft | 407 kts | 332° |
| 2026-04-23 19:28 | 26.30913 | -80.47220 | 22114 ft | 406 kts | 333° |
| 2026-04-23 19:29 | 26.33480 | -80.48529 | 22120 ft | 406 kts | 332° |
| 2026-04-23 19:29 | 26.38588 | -80.51209 | 22101 ft | 405 kts | 332° |
| 2026-04-23 19:30 | 26.43643 | -80.53905 | 22105 ft | 406 kts | 332° |
| 2026-04-23 19:30 | 26.46188 | -80.55261 | 22109 ft | 405 kts | 332° |
| 2026-04-23 19:30 | 26.51395 | -80.57664 | 22105 ft | 407 kts | 340° |
| 2026-04-23 19:31 | 26.54133 | -80.58519 | 22112 ft | 409 kts | 342° |
| 2026-04-23 19:31 | 26.56896 | -80.59313 | 22118 ft | 410 kts | 342° |
| 2026-04-23 19:31 | 26.59653 | -80.60110 | 22103 ft | 410 kts | 342° |
| 2026-04-23 19:31 | 26.62407 | -80.60932 | 22103 ft | 409 kts | 341° |
| 2026-04-23 19:32 | 26.65116 | -80.61766 | 22101 ft | 409 kts | 341° |
| 2026-04-23 19:32 | 26.67849 | -80.62624 | 22100 ft | 408 kts | 341° |
| 2026-04-23 19:32 | 26.70582 | -80.63490 | 22096 ft | 408 kts | 341° |
| 2026-04-23 19:32 | 26.73311 | -80.64360 | 22097 ft | 408 kts | 341° |
| 2026-04-23 19:33 | 26.76041 | -80.65233 | 22099 ft | 408 kts | 341° |
| 2026-04-23 19:33 | 26.78769 | -80.66104 | 22099 ft | 408 kts | 341° |
| 2026-04-23 19:33 | 26.84225 | -80.67844 | 22096 ft | 408 kts | 341° |
| 2026-04-23 19:34 | 26.86917 | -80.68702 | 22107 ft | 408 kts | 341° |
| 2026-04-23 19:34 | 26.89647 | -80.69573 | 22098 ft | 408 kts | 341° |
| 2026-04-23 19:34 | 26.95073 | -80.71436 | 22091 ft | 407 kts | 338° |
| 2026-04-23 19:35 | 26.97749 | -80.72465 | 22086 ft | 407 kts | 338° |
| 2026-04-23 19:35 | 27.00423 | -80.73505 | 22088 ft | 407 kts | 338° |
| 2026-04-23 19:35 | 27.03102 | -80.74542 | 22098 ft | 407 kts | 338° |
| 2026-04-23 19:35 | 27.05782 | -80.75571 | 22092 ft | 407 kts | 338° |
| 2026-04-23 19:36 | 27.08468 | -80.76595 | 22083 ft | 407 kts | 338° |
| 2026-04-23 19:36 | 27.11117 | -80.77601 | 22083 ft | 407 kts | 338° |
| 2026-04-23 19:36 | 27.13800 | -80.78617 | 22083 ft | 407 kts | 338° |
| 2026-04-23 19:36 | 27.16487 | -80.79635 | 22083 ft | 407 kts | 338° |
| 2026-04-23 19:37 | 27.19170 | -80.80652 | 22092 ft | 407 kts | 338° |
| 2026-04-23 19:37 | 27.21859 | -80.81671 | 22090 ft | 408 kts | 338° |
| 2026-04-23 19:37 | 27.24547 | -80.82692 | 22092 ft | 408 kts | 338° |
| 2026-04-23 19:37 | 27.27236 | -80.83711 | 22080 ft | 408 kts | 338° |
| 2026-04-23 19:38 | 27.29891 | -80.84720 | 22077 ft | 408 kts | 338° |
| 2026-04-23 19:38 | 27.32579 | -80.85737 | 22080 ft | 408 kts | 339° |
| 2026-04-23 19:38 | 27.35308 | -80.86641 | 22084 ft | 409 kts | 341° |
| 2026-04-23 19:38 | 27.38064 | -80.87455 | 22083 ft | 410 kts | 342° |
| 2026-04-23 19:39 | 27.40827 | -80.88242 | 22085 ft | 409 kts | 342° |
| 2026-04-23 19:39 | 27.43585 | -80.89026 | 22092 ft | 409 kts | 342° |
| 2026-04-23 19:39 | 27.46344 | -80.89823 | 22095 ft | 409 kts | 342° |
| 2026-04-23 19:39 | 27.49094 | -80.90628 | 22097 ft | 409 kts | 342° |
| 2026-04-23 19:40 | 27.51811 | -80.91432 | 22089 ft | 409 kts | 342° |
| 2026-04-23 19:40 | 27.54567 | -80.92251 | 22089 ft | 410 kts | 342° |
| 2026-04-23 19:40 | 27.57319 | -80.93071 | 22090 ft | 410 kts | 342° |
| 2026-04-23 19:40 | 27.60073 | -80.93893 | 22090 ft | 410 kts | 342° |
| 2026-04-23 19:41 | 27.62830 | -80.94717 | 22092 ft | 409 kts | 342° |
| 2026-04-23 19:41 | 27.65583 | -80.95540 | 22023 ft | 410 kts | 342° |
| 2026-04-23 19:41 | 27.68368 | -80.96374 | 21402 ft | 416 kts | 342° |
| 2026-04-23 19:41 | 27.71154 | -80.97207 | 20788 ft | 412 kts | 342° |
| 2026-04-23 19:42 | 27.73902 | -80.98026 | 20166 ft | 406 kts | 342° |
| 2026-04-23 19:42 | 27.76612 | -80.98836 | 19550 ft | 401 kts | 342° |
| 2026-04-23 19:42 | 27.79254 | -80.99627 | 18963 ft | 396 kts | 342° |
| 2026-04-23 19:42 | 27.81905 | -81.00422 | 18336 ft | 393 kts | 342° |
| 2026-04-23 19:43 | 27.84530 | -81.01208 | 17667 ft | 388 kts | 342° |
| 2026-04-23 19:43 | 27.87128 | -81.01988 | 17042 ft | 383 kts | 342° |
| 2026-04-23 19:43 | 27.89683 | -81.02754 | 16463 ft | 378 kts | 342° |
| 2026-04-23 19:43 | 27.92211 | -81.03513 | 15891 ft | 373 kts | 342° |
| 2026-04-23 19:44 | 27.94691 | -81.04301 | 15310 ft | 367 kts | 339° |
| 2026-04-23 19:44 | 27.97046 | -81.05266 | 14685 ft | 363 kts | 336° |
| 2026-04-23 19:44 | 27.99379 | -81.06312 | 14134 ft | 358 kts | 335° |
| 2026-04-23 19:44 | 28.01684 | -81.07341 | 13534 ft | 354 kts | 336° |
| 2026-04-23 19:45 | 28.03966 | -81.08330 | 12968 ft | 348 kts | 336° |
| 2026-04-23 19:45 | 28.06215 | -81.09287 | 12427 ft | 343 kts | 337° |
| 2026-04-23 19:45 | 28.08436 | -81.10226 | 11915 ft | 338 kts | 337° |
| 2026-04-23 19:45 | 28.10616 | -81.11172 | 11406 ft | 334 kts | 336° |
| 2026-04-23 19:46 | 28.12772 | -81.12124 | 10888 ft | 332 kts | 337° |
| 2026-04-23 19:46 | 28.14905 | -81.13064 | 10638 ft | 324 kts | 337° |
| 2026-04-23 19:46 | 28.16972 | -81.13986 | 10477 ft | 314 kts | 337° |
| 2026-04-23 19:46 | 28.18949 | -81.14862 | 10351 ft | 302 kts | 337° |
| 2026-04-23 19:47 | 28.20259 | -81.15425 | 10248 ft | 295 kts | 339° |
| 2026-04-23 19:47 | 28.22699 | -81.16472 | 10074 ft | 273 kts | 336° |
| 2026-04-23 19:47 | 28.24420 | -81.17255 | 9952 ft | 264 kts | 337° |
| 2026-04-23 19:47 | 28.26149 | -81.18024 | 9655 ft | 267 kts | 338° |
| 2026-04-23 19:48 | 28.27944 | -81.18626 | 9351 ft | 273 kts | 354° |
| 2026-04-23 19:48 | 28.29860 | -81.18680 | 9060 ft | 279 kts | 359° |
| 2026-04-23 19:48 | 28.31811 | -81.18676 | 8743 ft | 282 kts | 360° |
| 2026-04-23 19:48 | 28.33730 | -81.18677 | 8455 ft | 277 kts | 359° |
| 2026-04-23 19:49 | 28.35600 | -81.18702 | 8340 ft | 261 kts | 359° |
| 2026-04-23 19:49 | 28.37370 | -81.18718 | 8216 ft | 248 kts | 359° |
| 2026-04-23 19:49 | 28.39057 | -81.18749 | 8074 ft | 238 kts | 358° |
| 2026-04-23 19:49 | 28.40726 | -81.18769 | 7846 ft | 244 kts | 359° |
| 2026-04-23 19:50 | 28.42461 | -81.18785 | 7601 ft | 252 kts | 359° |
| 2026-04-23 19:50 | 28.44224 | -81.18797 | 7337 ft | 255 kts | 359° |
| 2026-04-23 19:50 | 28.45988 | -81.18815 | 7064 ft | 252 kts | 359° |
| 2026-04-23 19:50 | 28.47729 | -81.18825 | 6804 ft | 248 kts | 360° |
| 2026-04-23 19:51 | 28.49429 | -81.18839 | 6535 ft | 248 kts | 360° |
| 2026-04-23 19:51 | 28.51138 | -81.18851 | 6232 ft | 246 kts | 0° |
| 2026-04-23 19:51 | 28.52836 | -81.18861 | 6085 ft | 240 kts | 0° |
| 2026-04-23 19:51 | 28.54498 | -81.18875 | 6021 ft | 241 kts | 0° |
| 2026-04-23 19:52 | 28.55616 | -81.18882 | 5883 ft | 245 kts | 0° |
| 2026-04-23 19:52 | 28.57895 | -81.18890 | 5503 ft | 240 kts | 1° |
| 2026-04-23 19:52 | 28.59537 | -81.18904 | 5300 ft | 231 kts | 1° |
| 2026-04-23 19:52 | 28.61126 | -81.18979 | 5068 ft | 228 kts | 350° |
| 2026-04-23 19:53 | 28.62530 | -81.19761 | 4856 ft | 233 kts | 317° |
| 2026-04-23 19:53 | 28.63374 | -81.21307 | 4628 ft | 233 kts | 285° |
| 2026-04-23 19:53 | 28.63630 | -81.23106 | 4311 ft | 231 kts | 274° |
| 2026-04-23 19:53 | 28.63774 | -81.24957 | 4012 ft | 238 kts | 274° |
| 2026-04-23 19:54 | 28.63907 | -81.26841 | 3694 ft | 239 kts | 273° |
| 2026-04-23 19:54 | 28.64033 | -81.28723 | 3363 ft | 235 kts | 270° |
| 2026-04-23 19:54 | 28.63809 | -81.30518 | 3009 ft | 229 kts | 247° |
| 2026-04-23 19:54 | 28.63006 | -81.32000 | 2805 ft | 215 kts | 223° |
| 2026-04-23 19:55 | 28.61856 | -81.32902 | 2813 ft | 191 kts | 198° |
| 2026-04-23 19:55 | 28.60619 | -81.33051 | 2764 ft | 166 kts | 172° |
| 2026-04-23 19:55 | 28.59539 | -81.32945 | 2742 ft | 148 kts | 173° |
| 2026-04-23 19:55 | 28.58537 | -81.32911 | 2672 ft | 141 kts | 176° |
| 2026-04-23 19:56 | 28.57547 | -81.32910 | 2661 ft | 144 kts | 179° |
| 2026-04-23 19:56 | 28.56546 | -81.32919 | 2559 ft | 142 kts | 175° |
| 2026-04-23 19:56 | 28.55549 | -81.32918 | 2367 ft | 143 kts | 176° |
| 2026-04-23 19:56 | 28.54546 | -81.32900 | 2157 ft | 145 kts | 174° |
| 2026-04-23 19:57 | 28.53556 | -81.32836 | 1933 ft | 143 kts | 174° |
| 2026-04-23 19:57 | 28.52568 | -81.32785 | 1686 ft | 139 kts | 174° |
| 2026-04-23 19:57 | 28.51919 | -81.32774 | 1530 ft | 139 kts | 174° |
| 2026-04-23 19:57 | 28.50624 | -81.32756 | 1283 ft | 141 kts | 176° |
| 2026-04-23 19:58 | 28.49638 | -81.32752 | 1087 ft | 142 kts | 175° |
| 2026-04-23 19:58 | 28.48654 | -81.32742 | 939 ft | 144 kts | 174° |
| 2026-04-23 19:58 | 28.47641 | -81.32728 | 732 ft | 144 kts | 176° |
| 2026-04-23 19:58 | 28.46652 | -81.32722 | 514 ft | 140 kts | 175° |
| 2026-04-23 19:59 | 28.45715 | -81.32713 | 316 ft | 135 kts | 175° |
| 2026-04-23 19:59 | 28.44761 | -81.32703 | 165 ft | 138 kts | 175° |
| 2026-04-23 19:59 | 28.43822 | -81.32685 | 105 ft | 127 kts | 177° |
| 2026-04-23 19:59 | 28.43083 | -81.32680 | 106 ft | 84 kts | 179° |
| 2026-04-23 20:00 | 28.42748 | -81.32680 | 105 ft | 22 kts | 180° |
| 2026-04-23 20:00 | 28.42661 | -81.32726 | 104 ft | 12 kts | 248° |
| 2026-04-23 20:00 | 28.42652 | -81.32823 | 103 ft | 13 kts | 268° |
| 2026-04-23 20:00 | 28.42653 | -81.32901 | 103 ft | 6 kts | 282° |
| 2026-04-23 20:01 | 28.42691 | -81.32926 | 105 ft | 8 kts | 358° |
| 2026-04-23 20:01 | 28.42754 | -81.32928 | 103 ft | 10 kts | 358° |
| 2026-04-23 20:01 | 28.42811 | -81.32930 | 105 ft | 6 kts | 358° |
| 2026-04-23 20:01 | 28.42859 | -81.32932 | 103 ft | 8 kts | 358° |
| 2026-04-23 20:02 | 28.42925 | -81.32934 | 105 ft | 11 kts | 358° |
| 2026-04-23 20:02 | 28.43000 | -81.32939 | 104 ft | 7 kts | 341° |
| 2026-04-23 20:02 | 28.43009 | -81.32955 | 103 ft | 1 kts | 293° |
| 2026-04-23 20:02 | 28.43015 | -81.32973 | 103 ft | 4 kts | 291° |
| 2026-04-23 20:03 | 28.43029 | -81.33012 | 103 ft | 6 kts | 294° |
| 2026-04-23 20:03 | 28.43033 | -81.33025 | 106 ft | 2 kts | 285° |
| 2026-04-23 20:03 | 28.43033 | -81.33051 | 103 ft | 4 kts | 262° |
| 2026-04-23 20:03 | 28.43006 | -81.33070 | 103 ft | 6 kts | 185° |
| 2026-04-23 20:04 | 28.42959 | -81.33070 | 103 ft | 8 kts | 180° |
| 2026-04-23 20:04 | 28.42919 | -81.33071 | 103 ft | 0 kts | 180° |
| 2026-04-23 20:04 | 28.42914 | -81.33071 | 103 ft | 2 kts | 180° |
| 2026-04-23 20:04 | 28.42906 | -81.33071 | 103 ft | 0 kts | 180° |